NCAR-RAP Real-Time Weather Data

Output produced by METARs form (10 April 2020  07:24 UTC)
found at http://weather.rap.ucar.edu/surface/
 
KMCI 100653Z 34007KT 10SM CLR 00/M08 A3021 RMK AO2 SLP233 T00001078
KMCI 100553Z 35009KT 10SM CLR 01/M08 A3021 RMK AO2 SLP233 T00061078 10106 20000 401560000 51017
KMCI 100453Z 35010KT 10SM CLR 02/M08 A3020 RMK AO2 SLP227 T00221078
KMCI 100353Z 36014G21KT 10SM CLR 04/M08 A3019 RMK AO2 SLP224 T00391078
KMCI 100253Z 01013KT 10SM CLR 05/M08 A3016 RMK AO2 SLP215 T00501078 53035
KMCI 100153Z 01011KT 10SM FEW250 06/M08 A3012 RMK AO2 SLP202 T00611083
KMCI 100053Z 35016G24KT 10SM FEW250 08/M09 A3008 RMK AO2 PK WND 36028/0040 SLP188 T00781089
KMCI 092353Z 35019G30KT 10SM FEW250 11/M08 A3005 RMK AO2 PK WND 35030/2308 SLP179 T01061078 10156 20106 53013
KMCI 092253Z 34016G25KT 10SM SCT250 13/M08 A3003 RMK AO2 PK WND 33033/2208 SLP170 T01331078
KMCI 092153Z 32017G27KT 10SM CLR 14/M07 A3002 RMK AO2 PK WND 31032/2112 SLP164 T01441072
KMCI 092053Z 31018G30KT 10SM FEW130 BKN250 15/M06 A3001 RMK AO2 PK WND 30031/1954 SLP163 T01501056 56018
KMCI 091953Z 31015G28KT 10SM FEW130 SCT250 16/M05 A3003 RMK AO2 PK WND 32033/1858 SLP167 T01561050
KMCI 091853Z 31020G36KT 10SM SCT120 BKN250 14/M05 A3005 RMK AO2 PK WND 31036/1852 SLP176 T01441050
KMCI 091753Z 30020G29KT 10SM SCT120 BKN250 14/M06 A3007 RMK AO2 PK WND 29031/1713 SLP181 T01391056 10139 20039 58004
KMCI 091653Z 30012KT 10SM FEW130 BKN250 13/M04 A3009 RMK AO2 SLP189 T01281044
KMCI 091553Z 33013G20KT 10SM BKN110 OVC250 11/M06 A3008 RMK AO2 SLP186 T01111061
KMCI 091453Z 30009G18KT 10SM OVC110 10/M06 A3008 RMK AO2 SLP185 T01001056 50006
KMCI 091353Z 33008KT 10SM CLR 09/M01 A3008 RMK AO2 SLP185 T00891011
KMCI 091253Z 30005KT 10SM FEW130 BKN250 06/M01 A3008 RMK AO2 SLP186 T00611011
KMCI 091153Z 32005KT 10SM SCT200 04/M02 A3006 RMK AO2 SLP178 T00441022 10094 20044 53007
KMCI 091053Z 31006KT 10SM CLR 05/M02 A3004 RMK AO2 SLP171 T00501017
KMCI 090953Z 31006KT 10SM FEW200 06/M02 A3003 RMK AO2 SLP167 T00561017
KMCI 090853Z 28004KT 10SM CLR 07/M03 A3004 RMK AO2 SLP166 T00671028 50004